sensor_id;sensor_type;location;lat;lon;timestamp;temperature;humidity
13616;DHT22;6879;51.368;6.782;2022-10-18T00:01:42;15.00;99.90
13616;DHT22;6879;51.368;6.782;2022-10-18T00:04:13;14.90;99.90
13616;DHT22;6879;51.368;6.782;2022-10-18T00:06:41;15.00;99.90
13616;DHT22;6879;51.368;6.782;2022-10-18T00:09:11;15.00;99.90
13616;DHT22;6879;51.368;6.782;2022-10-18T00:11:40;15.10;99.90
13616;DHT22;6879;51.368;6.782;2022-10-18T00:14:12;15.10;99.90
13616;DHT22;6879;51.368;6.782;2022-10-18T00:16:40;15.00;99.90
13616;DHT22;6879;51.368;6.782;2022-10-18T00:19:09;15.00;99.90
13616;DHT22;6879;51.368;6.782;2022-10-18T00:21:38;15.00;99.90
13616;DHT22;6879;51.368;6.782;2022-10-18T00:24:07;14.90;99.90
13616;DHT22;6879;51.368;6.782;2022-10-18T00:26:37;14.90;99.90
13616;DHT22;6879;51.368;6.782;2022-10-18T00:29:05;14.90;99.90
13616;DHT22;6879;51.368;6.782;2022-10-18T00:31:36;15.00;99.90
13616;DHT22;6879;51.368;6.782;2022-10-18T00:34:06;15.00;99.90
13616;DHT22;6879;51.368;6.782;2022-10-18T00:36:35;14.90;99.90
13616;DHT22;6879;51.368;6.782;2022-10-18T00:39:04;14.90;99.90
13616;DHT22;6879;51.368;6.782;2022-10-18T00:41:35;14.90;99.90
13616;DHT22;6879;51.368;6.782;2022-10-18T00:44:58;15.00;99.90
13616;DHT22;6879;51.368;6.782;2022-10-18T00:46:57;15.00;99.90
13616;DHT22;6879;51.368;6.782;2022-10-18T00:49:31;15.00;99.90
13616;DHT22;6879;51.368;6.782;2022-10-18T00:52:04;15.00;99.90
13616;DHT22;6879;51.368;6.782;2022-10-18T00:54:38;15.00;99.90
13616;DHT22;6879;51.368;6.782;2022-10-18T00:57:08;15.00;99.90
13616;DHT22;6879;51.368;6.782;2022-10-18T00:59:41;15.00;99.90
13616;DHT22;6879;51.368;6.782;2022-10-18T01:02:10;14.90;99.90
13616;DHT22;6879;51.368;6.782;2022-10-18T01:04:40;15.00;99.90
13616;DHT22;6879;51.368;6.782;2022-10-18T01:07:17;14.90;99.90
13616;DHT22;6879;51.368;6.782;2022-10-18T01:09:53;14.90;99.90
13616;DHT22;6879;51.368;6.782;2022-10-18T01:12:31;14.90;99.90
13616;DHT22;6879;51.368;6.782;2022-10-18T01:15:09;14.90;99.90
13616;DHT22;6879;51.368;6.782;2022-10-18T01:17:47;14.90;99.90
13616;DHT22;6879;51.368;6.782;2022-10-18T01:20:39;14.80;99.90
13616;DHT22;6879;51.368;6.782;2022-10-18T01:23:16;14.90;99.90
13616;DHT22;6879;51.368;6.782;2022-10-18T01:25:53;14.80;99.90
13616;DHT22;6879;51.368;6.782;2022-10-18T01:28:37;14.90;99.90
13616;DHT22;6879;51.368;6.782;2022-10-18T01:31:14;15.10;99.90
13616;DHT22;6879;51.368;6.782;2022-10-18T01:33:49;15.30;99.90
13616;DHT22;6879;51.368;6.782;2022-10-18T01:36:22;15.20;99.90
13616;DHT22;6879;51.368;6.782;2022-10-18T01:38:53;15.10;99.90
13616;DHT22;6879;51.368;6.782;2022-10-18T01:41:23;15.10;99.90
13616;DHT22;6879;51.368;6.782;2022-10-18T01:43:55;15.00;99.90
13616;DHT22;6879;51.368;6.782;2022-10-18T01:46:27;15.00;99.90
13616;DHT22;6879;51.368;6.782;2022-10-18T01:48:56;15.00;99.90
13616;DHT22;6879;51.368;6.782;2022-10-18T01:51:27;15.00;99.90
13616;DHT22;6879;51.368;6.782;2022-10-18T01:53:56;15.00;99.90
13616;DHT22;6879;51.368;6.782;2022-10-18T01:56:35;15.00;99.90
13616;DHT22;6879;51.368;6.782;2022-10-18T01:59:21;15.00;99.90
13616;DHT22;6879;51.368;6.782;2022-10-18T02:02:00;15.00;99.90
13616;DHT22;6879;51.368;6.782;2022-10-18T02:04:35;15.00;99.90
13616;DHT22;6879;51.368;6.782;2022-10-18T02:07:14;15.10;99.90
13616;DHT22;6879;51.368;6.782;2022-10-18T02:09:50;15.10;99.90
13616;DHT22;6879;51.368;6.782;2022-10-18T02:12:23;15.10;99.90
13616;DHT22;6879;51.368;6.782;2022-10-18T02:14:52;15.10;99.90
13616;DHT22;6879;51.368;6.782;2022-10-18T02:17:24;15.10;99.90
13616;DHT22;6879;51.368;6.782;2022-10-18T02:19:55;15.10;99.90
13616;DHT22;6879;51.368;6.782;2022-10-18T02:22:30;15.10;99.90
13616;DHT22;6879;51.368;6.782;2022-10-18T02:25:05;15.10;99.90
13616;DHT22;6879;51.368;6.782;2022-10-18T02:27:36;15.00;99.90
13616;DHT22;6879;51.368;6.782;2022-10-18T02:30:06;15.10;99.90
13616;DHT22;6879;51.368;6.782;2022-10-18T02:32:38;15.30;99.90
13616;DHT22;6879;51.368;6.782;2022-10-18T02:35:12;15.30;99.90
13616;DHT22;6879;51.368;6.782;2022-10-18T02:37:43;15.20;99.90
13616;DHT22;6879;51.368;6.782;2022-10-18T02:40:15;15.20;99.90
13616;DHT22;6879;51.368;6.782;2022-10-18T02:42:45;15.10;99.90
13616;DHT22;6879;51.368;6.782;2022-10-18T02:45:15;15.10;99.90
13616;DHT22;6879;51.368;6.782;2022-10-18T02:47:45;15.10;99.90
13616;DHT22;6879;51.368;6.782;2022-10-18T02:50:13;15.10;99.90
13616;DHT22;6879;51.368;6.782;2022-10-18T02:52:44;15.10;99.90
13616;DHT22;6879;51.368;6.782;2022-10-18T02:55:13;15.10;99.90
13616;DHT22;6879;51.368;6.782;2022-10-18T02:57:42;15.10;99.90
13616;DHT22;6879;51.368;6.782;2022-10-18T03:00:12;15.10;99.90
13616;DHT22;6879;51.368;6.782;2022-10-18T03:02:41;15.10;99.90
13616;DHT22;6879;51.368;6.782;2022-10-18T03:05:11;15.10;99.90
13616;DHT22;6879;51.368;6.782;2022-10-18T03:07:42;15.10;99.90
13616;DHT22;6879;51.368;6.782;2022-10-18T03:10:11;15.10;99.90
13616;DHT22;6879;51.368;6.782;2022-10-18T03:12:42;15.10;99.90
13616;DHT22;6879;51.368;6.782;2022-10-18T03:15:10;15.10;99.90
13616;DHT22;6879;51.368;6.782;2022-10-18T03:17:39;15.10;99.90
13616;DHT22;6879;51.368;6.782;2022-10-18T03:20:08;15.10;99.90
13616;DHT22;6879;51.368;6.782;2022-10-18T03:22:38;15.10;99.90
13616;DHT22;6879;51.368;6.782;2022-10-18T03:25:07;15.20;99.90
13616;DHT22;6879;51.368;6.782;2022-10-18T03:27:38;15.20;99.90
13616;DHT22;6879;51.368;6.782;2022-10-18T03:30:07;15.30;99.90
13616;DHT22;6879;51.368;6.782;2022-10-18T03:32:40;15.40;99.90
13616;DHT22;6879;51.368;6.782;2022-10-18T03:35:09;15.30;99.90
13616;DHT22;6879;51.368;6.782;2022-10-18T03:37:42;15.20;99.90
13616;DHT22;6879;51.368;6.782;2022-10-18T03:40:10;15.20;99.90
13616;DHT22;6879;51.368;6.782;2022-10-18T03:42:39;15.20;99.90
13616;DHT22;6879;51.368;6.782;2022-10-18T03:45:08;15.10;99.90
13616;DHT22;6879;51.368;6.782;2022-10-18T03:47:36;15.10;99.90
13616;DHT22;6879;51.368;6.782;2022-10-18T03:50:06;15.10;99.90
13616;DHT22;6879;51.368;6.782;2022-10-18T03:52:35;15.10;99.90
13616;DHT22;6879;51.368;6.782;2022-10-18T03:55:06;15.10;99.90
13616;DHT22;6879;51.368;6.782;2022-10-18T03:57:36;15.10;99.90
13616;DHT22;6879;51.368;6.782;2022-10-18T04:00:06;15.10;99.90
13616;DHT22;6879;51.368;6.782;2022-10-18T04:02:59;15.00;99.90
13616;DHT22;6879;51.368;6.782;2022-10-18T04:05:27;15.00;99.90
13616;DHT22;6879;51.368;6.782;2022-10-18T04:07:57;15.10;99.90
13616;DHT22;6879;51.368;6.782;2022-10-18T04:10:27;15.10;99.90
13616;DHT22;6879;51.368;6.782;2022-10-18T04:12:56;15.10;99.90
13616;DHT22;6879;51.368;6.782;2022-10-18T04:15:27;15.10;99.90
13616;DHT22;6879;51.368;6.782;2022-10-18T04:17:58;15.10;99.90
13616;DHT22;6879;51.368;6.782;2022-10-18T04:20:27;15.10;99.90
13616;DHT22;6879;51.368;6.782;2022-10-18T04:22:56;15.10;99.90
13616;DHT22;6879;51.368;6.782;2022-10-18T04:25:24;15.10;99.90
13616;DHT22;6879;51.368;6.782;2022-10-18T04:27:56;15.30;99.90
13616;DHT22;6879;51.368;6.782;2022-10-18T04:30:25;15.30;99.90
13616;DHT22;6879;51.368;6.782;2022-10-18T04:32:53;15.50;99.90
13616;DHT22;6879;51.368;6.782;2022-10-18T04:35:23;15.50;99.90
13616;DHT22;6879;51.368;6.782;2022-10-18T04:37:51;15.40;99.90
13616;DHT22;6879;51.368;6.782;2022-10-18T04:40:20;15.30;99.90
13616;DHT22;6879;51.368;6.782;2022-10-18T04:42:51;15.20;99.90
13616;DHT22;6879;51.368;6.782;2022-10-18T04:45:21;15.20;99.90
13616;DHT22;6879;51.368;6.782;2022-10-18T04:47:52;15.20;99.90
13616;DHT22;6879;51.368;6.782;2022-10-18T04:50:20;15.20;99.90
13616;DHT22;6879;51.368;6.782;2022-10-18T04:52:50;15.20;99.90
13616;DHT22;6879;51.368;6.782;2022-10-18T04:55:22;15.30;99.90
13616;DHT22;6879;51.368;6.782;2022-10-18T04:57:51;15.40;99.90
13616;DHT22;6879;51.368;6.782;2022-10-18T05:00:21;15.40;99.90
13616;DHT22;6879;51.368;6.782;2022-10-18T05:02:55;15.30;99.90
13616;DHT22;6879;51.368;6.782;2022-10-18T05:05:23;15.40;99.90
13616;DHT22;6879;51.368;6.782;2022-10-18T05:08:12;15.30;99.90
13616;DHT22;6879;51.368;6.782;2022-10-18T05:10:42;15.40;99.90
13616;DHT22;6879;51.368;6.782;2022-10-18T05:13:10;15.40;99.90
13616;DHT22;6879;51.368;6.782;2022-10-18T05:15:40;15.50;99.90
13616;DHT22;6879;51.368;6.782;2022-10-18T05:18:10;15.70;99.90
13616;DHT22;6879;51.368;6.782;2022-10-18T05:20:38;15.70;99.90
13616;DHT22;6879;51.368;6.782;2022-10-18T05:23:07;15.60;99.90
13616;DHT22;6879;51.368;6.782;2022-10-18T05:25:37;15.60;99.90
13616;DHT22;6879;51.368;6.782;2022-10-18T05:28:09;15.50;99.90
13616;DHT22;6879;51.368;6.782;2022-10-18T05:31:01;15.50;99.90
13616;DHT22;6879;51.368;6.782;2022-10-18T05:33:30;15.40;99.90
13616;DHT22;6879;51.368;6.782;2022-10-18T05:35:59;15.40;99.90
13616;DHT22;6879;51.368;6.782;2022-10-18T05:38:28;15.30;99.90
13616;DHT22;6879;51.368;6.782;2022-10-18T05:40:57;15.60;99.90
13616;DHT22;6879;51.368;6.782;2022-10-18T05:43:26;15.70;99.90
13616;DHT22;6879;51.368;6.782;2022-10-18T05:45:55;15.50;99.90
13616;DHT22;6879;51.368;6.782;2022-10-18T05:48:25;15.60;99.90
13616;DHT22;6879;51.368;6.782;2022-10-18T05:50:56;15.50;99.90
13616;DHT22;6879;51.368;6.782;2022-10-18T05:53:25;15.30;99.90
13616;DHT22;6879;51.368;6.782;2022-10-18T05:56:09;15.30;99.90
13616;DHT22;6879;51.368;6.782;2022-10-18T05:58:40;15.30;99.90
13616;DHT22;6879;51.368;6.782;2022-10-18T06:01:09;15.20;99.90
13616;DHT22;6879;51.368;6.782;2022-10-18T06:03:39;15.20;99.90
13616;DHT22;6879;51.368;6.782;2022-10-18T06:06:09;15.20;99.90
13616;DHT22;6879;51.368;6.782;2022-10-18T06:08:39;15.20;99.90
13616;DHT22;6879;51.368;6.782;2022-10-18T06:11:08;15.20;99.90
13616;DHT22;6879;51.368;6.782;2022-10-18T06:13:40;15.50;99.90
13616;DHT22;6879;51.368;6.782;2022-10-18T06:16:10;15.50;99.90
13616;DHT22;6879;51.368;6.782;2022-10-18T06:18:40;15.50;99.90
13616;DHT22;6879;51.368;6.782;2022-10-18T06:21:09;15.40;99.90
13616;DHT22;6879;51.368;6.782;2022-10-18T06:23:37;15.40;99.90
13616;DHT22;6879;51.368;6.782;2022-10-18T06:26:09;15.60;99.90
13616;DHT22;6879;51.368;6.782;2022-10-18T06:28:37;15.70;99.90
13616;DHT22;6879;51.368;6.782;2022-10-18T06:31:06;15.80;99.90
13616;DHT22;6879;51.368;6.782;2022-10-18T06:33:35;15.80;99.90
13616;DHT22;6879;51.368;6.782;2022-10-18T06:36:07;15.80;99.90
13616;DHT22;6879;51.368;6.782;2022-10-18T06:38:37;15.80;99.90
13616;DHT22;6879;51.368;6.782;2022-10-18T06:41:06;15.80;99.90
13616;DHT22;6879;51.368;6.782;2022-10-18T06:43:35;15.80;99.90
13616;DHT22;6879;51.368;6.782;2022-10-18T06:46:05;15.70;99.90
13616;DHT22;6879;51.368;6.782;2022-10-18T06:48:35;15.60;99.90
13616;DHT22;6879;51.368;6.782;2022-10-18T06:51:09;15.50;99.90
13616;DHT22;6879;51.368;6.782;2022-10-18T06:53:39;15.50;99.90
13616;DHT22;6879;51.368;6.782;2022-10-18T06:56:19;15.50;99.90
13616;DHT22;6879;51.368;6.782;2022-10-18T06:58:47;15.50;99.90
13616;DHT22;6879;51.368;6.782;2022-10-18T07:01:17;15.60;99.90
13616;DHT22;6879;51.368;6.782;2022-10-18T07:03:47;15.70;99.90
13616;DHT22;6879;51.368;6.782;2022-10-18T07:06:18;15.90;99.90
13616;DHT22;6879;51.368;6.782;2022-10-18T07:08:48;15.90;99.90
13616;DHT22;6879;51.368;6.782;2022-10-18T07:11:18;16.00;99.90
13616;DHT22;6879;51.368;6.782;2022-10-18T07:13:47;16.00;99.90
13616;DHT22;6879;51.368;6.782;2022-10-18T07:16:17;16.10;99.90
13616;DHT22;6879;51.368;6.782;2022-10-18T07:18:47;16.20;99.90
13616;DHT22;6879;51.368;6.782;2022-10-18T07:21:19;16.20;99.90
13616;DHT22;6879;51.368;6.782;2022-10-18T07:23:49;16.30;99.90
13616;DHT22;6879;51.368;6.782;2022-10-18T07:26:21;16.20;99.90
13616;DHT22;6879;51.368;6.782;2022-10-18T07:28:54;16.20;99.90
13616;DHT22;6879;51.368;6.782;2022-10-18T07:31:24;16.20;99.90
13616;DHT22;6879;51.368;6.782;2022-10-18T07:33:53;16.20;99.90
13616;DHT22;6879;51.368;6.782;2022-10-18T07:36:23;16.20;99.90
13616;DHT22;6879;51.368;6.782;2022-10-18T07:38:52;16.30;99.90
13616;DHT22;6879;51.368;6.782;2022-10-18T07:41:21;16.50;99.90
13616;DHT22;6879;51.368;6.782;2022-10-18T07:43:50;16.70;99.90
13616;DHT22;6879;51.368;6.782;2022-10-18T07:46:20;16.90;99.90
13616;DHT22;6879;51.368;6.782;2022-10-18T07:48:49;16.90;99.90
13616;DHT22;6879;51.368;6.782;2022-10-18T07:51:19;17.00;99.90
13616;DHT22;6879;51.368;6.782;2022-10-18T07:53:50;17.10;99.90
13616;DHT22;6879;51.368;6.782;2022-10-18T07:56:20;17.10;99.90
13616;DHT22;6879;51.368;6.782;2022-10-18T07:58:50;17.10;99.90
13616;DHT22;6879;51.368;6.782;2022-10-18T08:01:19;17.20;99.90
13616;DHT22;6879;51.368;6.782;2022-10-18T08:03:49;17.10;99.90
13616;DHT22;6879;51.368;6.782;2022-10-18T08:06:19;17.20;99.90
13616;DHT22;6879;51.368;6.782;2022-10-18T08:08:51;17.20;99.90
13616;DHT22;6879;51.368;6.782;2022-10-18T08:11:21;17.20;99.90
13616;DHT22;6879;51.368;6.782;2022-10-18T08:13:50;17.10;99.90
13616;DHT22;6879;51.368;6.782;2022-10-18T08:16:23;17.20;99.90
13616;DHT22;6879;51.368;6.782;2022-10-18T08:18:53;17.20;99.90
13616;DHT22;6879;51.368;6.782;2022-10-18T08:21:24;17.30;99.90
13616;DHT22;6879;51.368;6.782;2022-10-18T08:23:54;17.30;99.90
13616;DHT22;6879;51.368;6.782;2022-10-18T08:26:23;17.30;99.90
13616;DHT22;6879;51.368;6.782;2022-10-18T08:28:52;17.20;99.90
13616;DHT22;6879;51.368;6.782;2022-10-18T08:31:41;17.20;99.90
13616;DHT22;6879;51.368;6.782;2022-10-18T08:34:10;17.10;99.90
13616;DHT22;6879;51.368;6.782;2022-10-18T08:36:45;17.10;99.90
13616;DHT22;6879;51.368;6.782;2022-10-18T08:39:15;17.00;99.90
13616;DHT22;6879;51.368;6.782;2022-10-18T08:42:10;17.00;99.90
13616;DHT22;6879;51.368;6.782;2022-10-18T08:44:45;17.00;99.90
13616;DHT22;6879;51.368;6.782;2022-10-18T08:47:17;17.10;99.90
13616;DHT22;6879;51.368;6.782;2022-10-18T08:49:48;17.10;99.90
13616;DHT22;6879;51.368;6.782;2022-10-18T08:52:27;17.10;99.90
13616;DHT22;6879;51.368;6.782;2022-10-18T08:55:03;17.30;99.90
13616;DHT22;6879;51.368;6.782;2022-10-18T08:57:34;17.40;99.90
13616;DHT22;6879;51.368;6.782;2022-10-18T09:00:12;17.30;99.90
13616;DHT22;6879;51.368;6.782;2022-10-18T09:02:54;17.10;99.90
13616;DHT22;6879;51.368;6.782;2022-10-18T09:05:28;17.10;99.90
13616;DHT22;6879;51.368;6.782;2022-10-18T09:08:25;17.10;99.90
13616;DHT22;6879;51.368;6.782;2022-10-18T09:11:09;17.00;99.90
13616;DHT22;6879;51.368;6.782;2022-10-18T09:13:59;17.00;99.90
13616;DHT22;6879;51.368;6.782;2022-10-18T09:16:35;16.90;99.90
13616;DHT22;6879;51.368;6.782;2022-10-18T09:19:19;17.00;99.90
13616;DHT22;6879;51.368;6.782;2022-10-18T09:21:51;17.00;99.90
13616;DHT22;6879;51.368;6.782;2022-10-18T09:24:25;17.00;99.90
13616;DHT22;6879;51.368;6.782;2022-10-18T09:27:04;17.00;99.90
13616;DHT22;6879;51.368;6.782;2022-10-18T09:29:43;17.00;99.90
13616;DHT22;6879;51.368;6.782;2022-10-18T09:32:23;17.10;99.90
13616;DHT22;6879;51.368;6.782;2022-10-18T09:34:55;17.10;99.90
13616;DHT22;6879;51.368;6.782;2022-10-18T09:37:28;17.20;99.90
13616;DHT22;6879;51.368;6.782;2022-10-18T09:40:06;17.30;99.90
13616;DHT22;6879;51.368;6.782;2022-10-18T09:42:52;17.40;99.90
13616;DHT22;6879;51.368;6.782;2022-10-18T09:45:26;17.60;99.90
13616;DHT22;6879;51.368;6.782;2022-10-18T09:48:02;17.90;99.90
13616;DHT22;6879;51.368;6.782;2022-10-18T09:50:38;18.20;99.90
13616;DHT22;6879;51.368;6.782;2022-10-18T09:53:16;18.50;99.90
13616;DHT22;6879;51.368;6.782;2022-10-18T09:55:57;18.80;99.90
13616;DHT22;6879;51.368;6.782;2022-10-18T09:58:38;19.10;99.90
13616;DHT22;6879;51.368;6.782;2022-10-18T10:01:16;19.20;99.90
13616;DHT22;6879;51.368;6.782;2022-10-18T10:03:51;19.50;99.90
13616;DHT22;6879;51.368;6.782;2022-10-18T10:06:25;19.50;99.90
13616;DHT22;6879;51.368;6.782;2022-10-18T10:09:04;19.40;99.90
13616;DHT22;6879;51.368;6.782;2022-10-18T10:11:39;19.40;99.90
13616;DHT22;6879;51.368;6.782;2022-10-18T10:14:18;19.50;99.90
13616;DHT22;6879;51.368;6.782;2022-10-18T10:16:54;19.60;99.90
13616;DHT22;6879;51.368;6.782;2022-10-18T10:19:28;19.70;99.90
13616;DHT22;6879;51.368;6.782;2022-10-18T10:22:04;19.50;99.90
13616;DHT22;6879;51.368;6.782;2022-10-18T10:24:46;19.20;99.90
13616;DHT22;6879;51.368;6.782;2022-10-18T10:27:27;19.10;99.90
13616;DHT22;6879;51.368;6.782;2022-10-18T10:30:26;19.10;99.90
13616;DHT22;6879;51.368;6.782;2022-10-18T10:33:14;19.50;99.90
13616;DHT22;6879;51.368;6.782;2022-10-18T10:36:15;19.90;99.90
13616;DHT22;6879;51.368;6.782;2022-10-18T10:39:03;20.60;99.90
13616;DHT22;6879;51.368;6.782;2022-10-18T10:41:34;21.00;99.80
13616;DHT22;6879;51.368;6.782;2022-10-18T10:44:14;21.20;99.90
13616;DHT22;6879;51.368;6.782;2022-10-18T10:46:56;20.90;99.60
13616;DHT22;6879;51.368;6.782;2022-10-18T10:49:45;20.50;99.90
13616;DHT22;6879;51.368;6.782;2022-10-18T10:52:19;20.40;99.90
13616;DHT22;6879;51.368;6.782;2022-10-18T10:55:00;20.70;99.90
13616;DHT22;6879;51.368;6.782;2022-10-18T10:58:01;20.80;99.90
13616;DHT22;6879;51.368;6.782;2022-10-18T11:00:55;20.60;99.90
13616;DHT22;6879;51.368;6.782;2022-10-18T11:03:27;20.90;99.50
13616;DHT22;6879;51.368;6.782;2022-10-18T11:09:26;20.40;98.90
13616;DHT22;6879;51.368;6.782;2022-10-18T11:12:22;19.60;99.90
13616;DHT22;6879;51.368;6.782;2022-10-18T11:15:19;19.20;99.90
13616;DHT22;6879;51.368;6.782;2022-10-18T11:18:14;19.20;99.90
13616;DHT22;6879;51.368;6.782;2022-10-18T11:21:17;20.00;99.90
13616;DHT22;6879;51.368;6.782;2022-10-18T11:24:04;21.60;98.30
13616;DHT22;6879;51.368;6.782;2022-10-18T11:27:21;23.30;93.00
13616;DHT22;6879;51.368;6.782;2022-10-18T11:30:36;25.00;90.10
13616;DHT22;6879;51.368;6.782;2022-10-18T11:33:18;25.50;85.90
13616;DHT22;6879;51.368;6.782;2022-10-18T11:36:09;25.40;86.30
13616;DHT22;6879;51.368;6.782;2022-10-18T11:38:44;25.50;84.40
13616;DHT22;6879;51.368;6.782;2022-10-18T11:41:30;25.50;84.50
13616;DHT22;6879;51.368;6.782;2022-10-18T11:44:01;24.90;83.90
13616;DHT22;6879;51.368;6.782;2022-10-18T11:46:40;24.00;87.80
13616;DHT22;6879;51.368;6.782;2022-10-18T11:49:31;24.80;86.20
13616;DHT22;6879;51.368;6.782;2022-10-18T11:52:09;25.20;84.80
13616;DHT22;6879;51.368;6.782;2022-10-18T11:54:54;25.70;83.40
13616;DHT22;6879;51.368;6.782;2022-10-18T11:57:38;26.10;82.90
13616;DHT22;6879;51.368;6.782;2022-10-18T12:00:19;25.20;84.50
13616;DHT22;6879;51.368;6.782;2022-10-18T12:03:05;24.40;84.60
13616;DHT22;6879;51.368;6.782;2022-10-18T12:05:38;23.90;86.50
13616;DHT22;6879;51.368;6.782;2022-10-18T12:08:13;23.50;86.50
13616;DHT22;6879;51.368;6.782;2022-10-18T12:10:49;24.30;85.10
13616;DHT22;6879;51.368;6.782;2022-10-18T12:13:35;24.80;83.30
13616;DHT22;6879;51.368;6.782;2022-10-18T12:16:08;25.60;81.50
13616;DHT22;6879;51.368;6.782;2022-10-18T12:18:50;26.60;80.30
13616;DHT22;6879;51.368;6.782;2022-10-18T12:21:24;27.70;77.40
13616;DHT22;6879;51.368;6.782;2022-10-18T12:24:02;27.50;76.80
13616;DHT22;6879;51.368;6.782;2022-10-18T12:26:32;27.20;78.20
13616;DHT22;6879;51.368;6.782;2022-10-18T12:29:09;27.30;77.70
13616;DHT22;6879;51.368;6.782;2022-10-18T12:31:44;27.50;76.70
13616;DHT22;6879;51.368;6.782;2022-10-18T12:34:32;27.90;76.00
13616;DHT22;6879;51.368;6.782;2022-10-18T12:37:18;28.20;75.40
13616;DHT22;6879;51.368;6.782;2022-10-18T12:39:56;27.50;75.00
13616;DHT22;6879;51.368;6.782;2022-10-18T12:42:48;26.10;76.60
13616;DHT22;6879;51.368;6.782;2022-10-18T12:45:26;24.60;79.30
13616;DHT22;6879;51.368;6.782;2022-10-18T12:47:59;23.40;81.80
13616;DHT22;6879;51.368;6.782;2022-10-18T12:50:32;22.40;85.20
13616;DHT22;6879;51.368;6.782;2022-10-18T12:53:16;23.00;85.70
13616;DHT22;6879;51.368;6.782;2022-10-18T12:55:49;24.10;83.70
13616;DHT22;6879;51.368;6.782;2022-10-18T12:58:25;25.60;80.30
13616;DHT22;6879;51.368;6.782;2022-10-18T13:00:59;26.60;78.20
13616;DHT22;6879;51.368;6.782;2022-10-18T13:03:40;27.60;75.30
13616;DHT22;6879;51.368;6.782;2022-10-18T13:06:17;28.60;73.70
13616;DHT22;6879;51.368;6.782;2022-10-18T13:08:46;29.40;71.10
13616;DHT22;6879;51.368;6.782;2022-10-18T13:11:29;29.60;71.30
13616;DHT22;6879;51.368;6.782;2022-10-18T13:14:31;28.10;72.90
13616;DHT22;6879;51.368;6.782;2022-10-18T13:17:22;28.40;72.70
13616;DHT22;6879;51.368;6.782;2022-10-18T13:20:01;27.30;73.00
13616;DHT22;6879;51.368;6.782;2022-10-18T13:23:00;26.90;73.30
13616;DHT22;6879;51.368;6.782;2022-10-18T13:25:36;28.00;72.90
13616;DHT22;6879;51.368;6.782;2022-10-18T13:28:21;28.10;72.40
13616;DHT22;6879;51.368;6.782;2022-10-18T13:30:56;29.10;71.10
13616;DHT22;6879;51.368;6.782;2022-10-18T13:33:33;29.70;69.90
13616;DHT22;6879;51.368;6.782;2022-10-18T13:36:11;29.60;69.90
13616;DHT22;6879;51.368;6.782;2022-10-18T13:39:01;30.30;67.80
13616;DHT22;6879;51.368;6.782;2022-10-18T13:41:31;30.50;67.80
13616;DHT22;6879;51.368;6.782;2022-10-18T13:44:39;28.50;69.80
13616;DHT22;6879;51.368;6.782;2022-10-18T13:47:11;28.60;69.50
13616;DHT22;6879;51.368;6.782;2022-10-18T13:53:18;27.40;71.10
13616;DHT22;6879;51.368;6.782;2022-10-18T13:56:02;27.30;72.00
13616;DHT22;6879;51.368;6.782;2022-10-18T13:58:43;27.50;71.50
13616;DHT22;6879;51.368;6.782;2022-10-18T14:01:56;26.60;72.10
13616;DHT22;6879;51.368;6.782;2022-10-18T14:04:45;26.20;71.50
13616;DHT22;6879;51.368;6.782;2022-10-18T14:07:20;25.50;73.10
13616;DHT22;6879;51.368;6.782;2022-10-18T14:09:51;25.30;73.90
13616;DHT22;6879;51.368;6.782;2022-10-18T14:12:27;25.60;71.50
13616;DHT22;6879;51.368;6.782;2022-10-18T14:15:02;26.20;69.90
13616;DHT22;6879;51.368;6.782;2022-10-18T14:17:43;26.70;70.00
13616;DHT22;6879;51.368;6.782;2022-10-18T14:20:17;26.60;70.50
13616;DHT22;6879;51.368;6.782;2022-10-18T14:23:03;25.20;72.00
13616;DHT22;6879;51.368;6.782;2022-10-18T14:25:36;24.10;75.70
13616;DHT22;6879;51.368;6.782;2022-10-18T14:28:10;23.60;76.40
13616;DHT22;6879;51.368;6.782;2022-10-18T14:30:53;24.10;76.10
13616;DHT22;6879;51.368;6.782;2022-10-18T14:33:26;25.60;73.00
13616;DHT22;6879;51.368;6.782;2022-10-18T14:36:06;26.30;71.00
13616;DHT22;6879;51.368;6.782;2022-10-18T14:38:47;24.50;74.20
13616;DHT22;6879;51.368;6.782;2022-10-18T14:41:20;23.60;76.10
13616;DHT22;6879;51.368;6.782;2022-10-18T14:43:50;23.20;76.80
13616;DHT22;6879;51.368;6.782;2022-10-18T14:46:20;24.20;75.60
13616;DHT22;6879;51.368;6.782;2022-10-18T14:48:58;25.30;73.40
13616;DHT22;6879;51.368;6.782;2022-10-18T14:51:29;25.80;72.40
13616;DHT22;6879;51.368;6.782;2022-10-18T14:54:00;25.90;71.60
13616;DHT22;6879;51.368;6.782;2022-10-18T14:56:30;25.40;72.40
13616;DHT22;6879;51.368;6.782;2022-10-18T14:59:03;25.40;72.60
13616;DHT22;6879;51.368;6.782;2022-10-18T15:01:32;25.30;72.70
13616;DHT22;6879;51.368;6.782;2022-10-18T15:04:08;25.80;71.10
13616;DHT22;6879;51.368;6.782;2022-10-18T15:06:41;26.30;70.30
13616;DHT22;6879;51.368;6.782;2022-10-18T15:09:11;26.90;68.60
13616;DHT22;6879;51.368;6.782;2022-10-18T15:11:40;26.40;69.00
13616;DHT22;6879;51.368;6.782;2022-10-18T15:14:14;25.70;70.50
13616;DHT22;6879;51.368;6.782;2022-10-18T15:16:44;25.10;72.40
13616;DHT22;6879;51.368;6.782;2022-10-18T15:19:32;24.20;73.90
13616;DHT22;6879;51.368;6.782;2022-10-18T15:22:02;23.60;75.10
13616;DHT22;6879;51.368;6.782;2022-10-18T15:25:15;23.00;76.40
13616;DHT22;6879;51.368;6.782;2022-10-18T15:27:48;21.90;78.20
13616;DHT22;6879;51.368;6.782;2022-10-18T15:30:23;21.00;80.10
13616;DHT22;6879;51.368;6.782;2022-10-18T15:32:55;20.30;81.70
13616;DHT22;6879;51.368;6.782;2022-10-18T15:35:30;20.10;81.60
13616;DHT22;6879;51.368;6.782;2022-10-18T15:38:00;20.00;82.10
13616;DHT22;6879;51.368;6.782;2022-10-18T15:40:33;19.80;82.20
13616;DHT22;6879;51.368;6.782;2022-10-18T15:43:05;19.70;82.60
13616;DHT22;6879;51.368;6.782;2022-10-18T15:45:36;19.50;83.70
13616;DHT22;6879;51.368;6.782;2022-10-18T15:48:22;19.40;84.80
13616;DHT22;6879;51.368;6.782;2022-10-18T15:50:54;19.10;85.90
13616;DHT22;6879;51.368;6.782;2022-10-18T15:53:44;19.00;86.20
13616;DHT22;6879;51.368;6.782;2022-10-18T15:56:30;18.80;87.00
13616;DHT22;6879;51.368;6.782;2022-10-18T15:59:00;18.80;87.10
13616;DHT22;6879;51.368;6.782;2022-10-18T16:01:34;18.70;87.90
13616;DHT22;6879;51.368;6.782;2022-10-18T16:04:11;18.60;88.70
13616;DHT22;6879;51.368;6.782;2022-10-18T16:06:43;18.50;89.50
13616;DHT22;6879;51.368;6.782;2022-10-18T16:09:15;18.30;90.10
13616;DHT22;6879;51.368;6.782;2022-10-18T16:11:50;18.10;90.90
13616;DHT22;6879;51.368;6.782;2022-10-18T16:14:26;18.00;91.30
13616;DHT22;6879;51.368;6.782;2022-10-18T16:16:58;17.90;91.70
13616;DHT22;6879;51.368;6.782;2022-10-18T16:19:27;17.70;91.90
13616;DHT22;6879;51.368;6.782;2022-10-18T16:21:58;17.50;92.40
13616;DHT22;6879;51.368;6.782;2022-10-18T16:24:32;17.40;93.00
13616;DHT22;6879;51.368;6.782;2022-10-18T16:27:02;17.30;93.40
13616;DHT22;6879;51.368;6.782;2022-10-18T16:29:31;16.90;94.50
13616;DHT22;6879;51.368;6.782;2022-10-18T16:32:00;16.70;95.60
13616;DHT22;6879;51.368;6.782;2022-10-18T16:34:29;16.20;97.00
13616;DHT22;6879;51.368;6.782;2022-10-18T16:36:59;15.80;98.60
13616;DHT22;6879;51.368;6.782;2022-10-18T16:39:28;15.60;99.60
13616;DHT22;6879;51.368;6.782;2022-10-18T16:42:00;15.20;99.90